createdAt,value
2022-10-17T00:00:08.348Z,81
2022-10-17T00:05:09.810Z,81
2022-10-17T00:10:11.788Z,82
2022-10-17T00:15:13.217Z,82
2022-10-17T00:20:14.653Z,81
2022-10-17T00:25:15.777Z,82
2022-10-17T00:30:17.865Z,82
2022-10-17T00:35:19.479Z,83
2022-10-17T00:40:21.437Z,82
2022-10-17T00:45:22.691Z,83
2022-10-17T00:50:24.446Z,82
2022-10-17T00:55:26.337Z,82
2022-10-17T01:00:28.130Z,82
2022-10-17T01:05:29.294Z,83
2022-10-17T01:10:30.861Z,82
2022-10-17T01:15:32.980Z,83
2022-10-17T01:20:34.710Z,83
2022-10-17T01:25:36.038Z,83
2022-10-17T01:30:37.335Z,83
2022-10-17T01:35:39.247Z,83
2022-10-17T01:40:40.999Z,83
2022-10-17T01:45:42.773Z,83
2022-10-17T01:50:44.116Z,83
2022-10-17T01:55:45.514Z,82
2022-10-17T02:00:47.551Z,83
2022-10-17T02:05:49.007Z,83
2022-10-17T02:10:50.749Z,83
2022-10-17T02:15:52.513Z,83
2022-10-17T02:21:00.890Z,83
2022-10-17T02:26:02.537Z,82
2022-10-17T02:31:03.895Z,83
2022-10-17T02:36:05.334Z,83
2022-10-17T02:41:06.522Z,83
2022-10-17T02:46:08.734Z,83
2022-10-17T02:51:10.649Z,83
2022-10-17T02:56:12.070Z,83
2022-10-17T03:01:13.990Z,82
2022-10-17T03:06:15.393Z,83
2022-10-17T03:11:17.350Z,84
2022-10-17T03:16:18.676Z,83
2022-10-17T03:21:20.170Z,83
2022-10-17T03:26:22.134Z,83
2022-10-17T03:31:23.386Z,83
2022-10-17T03:36:25.167Z,83
2022-10-17T03:41:26.645Z,83
2022-10-17T03:46:28.284Z,82
2022-10-17T03:51:29.699Z,83
2022-10-17T03:56:31.806Z,84
2022-10-17T04:01:33.488Z,83
2022-10-17T04:06:35.536Z,83
2022-10-17T04:11:37.217Z,83
2022-10-17T04:16:38.672Z,84
2022-10-17T04:21:39.931Z,83
2022-10-17T04:26:41.857Z,84
2022-10-17T04:31:43.226Z,84
2022-10-17T04:36:44.939Z,83
2022-10-17T04:56:51.154Z,83
2022-10-17T05:06:54.584Z,83
2022-10-17T05:11:55.683Z,83
2022-10-17T05:16:57.123Z,84
2022-10-17T05:21:58.345Z,84
2022-10-17T05:26:59.822Z,83
2022-10-17T05:37:03.092Z,84
2022-10-17T05:42:04.818Z,84
2022-10-17T05:47:06.860Z,84
2022-10-17T05:57:09.405Z,84
2022-10-17T06:02:10.996Z,84
2022-10-17T06:07:12.213Z,85
2022-10-17T06:12:13.564Z,84
2022-10-17T06:17:16.340Z,84
2022-10-17T06:22:16.867Z,84
2022-10-17T06:27:18.698Z,84
2022-10-17T06:32:20.584Z,84
2022-10-17T06:37:22.220Z,84
2022-10-17T06:42:23.650Z,84
2022-10-17T06:47:25.325Z,84
2022-10-17T06:52:27.364Z,84
2022-10-17T06:57:29.257Z,85
2022-10-17T07:02:30.688Z,85
2022-10-17T07:07:32.355Z,84
2022-10-17T07:12:33.945Z,81
2022-10-17T07:17:35.503Z,80
2022-10-17T07:22:37.193Z,77
2022-10-17T07:27:39.340Z,75
2022-10-17T07:32:40.717Z,74
2022-10-17T07:37:42.650Z,70
2022-10-17T07:42:43.975Z,69
2022-10-17T07:47:45.906Z,68
2022-10-17T07:52:47.086Z,66
2022-10-17T07:57:48.522Z,60
2022-10-17T08:02:50.187Z,55
2022-10-17T08:07:51.919Z,55
2022-10-17T08:12:53.595Z,54
2022-10-17T08:17:55.533Z,55
2022-10-17T08:22:57.452Z,54
2022-10-17T08:27:58.883Z,53
2022-10-17T08:33:01.029Z,54
2022-10-17T08:38:02.761Z,54
2022-10-17T08:43:04.366Z,51
2022-10-17T08:48:05.756Z,46
2022-10-17T08:53:06.943Z,45
2022-10-17T08:58:08.551Z,43
2022-10-17T09:03:10.541Z,37
2022-10-17T09:08:11.938Z,35
2022-10-17T09:13:13.809Z,34
2022-10-17T09:18:16.693Z,31
2022-10-17T09:23:16.890Z,32
2022-10-17T09:28:18.786Z,30
2022-10-17T09:33:28.801Z,28
2022-10-17T09:38:22.355Z,27
2022-10-17T09:43:23.773Z,27
2022-10-17T09:48:25.459Z,26
2022-10-17T09:53:26.701Z,25
2022-10-17T09:58:27.851Z,25
2022-10-17T10:03:30.005Z,25
2022-10-17T10:08:31.152Z,24
2022-10-17T10:13:33.023Z,24
2022-10-17T10:18:34.694Z,24
2022-10-17T10:23:36.515Z,24
2022-10-17T10:28:38.493Z,24
2022-10-17T10:33:41.658Z,25
2022-10-17T10:38:41.861Z,25
2022-10-17T10:43:43.660Z,25
2022-10-17T10:48:45.112Z,24
2022-10-17T10:53:47.239Z,24
2022-10-17T10:58:48.729Z,24
2022-10-17T11:03:50.683Z,24
2022-10-17T11:08:51.911Z,25
2022-10-17T11:13:54.137Z,25
2022-10-17T11:18:55.818Z,27
2022-10-17T11:23:57.375Z,28
2022-10-17T11:28:59.396Z,29
2022-10-17T11:34:01.270Z,31
2022-10-17T11:39:02.577Z,32
2022-10-17T11:44:04.454Z,33
2022-10-17T11:49:06.022Z,34
2022-10-17T11:54:07.950Z,34
2022-10-17T11:59:09.522Z,35
2022-10-17T12:04:11.658Z,36
2022-10-17T12:09:13.700Z,37
2022-10-17T12:14:15.624Z,37
2022-10-17T12:19:17.563Z,37
2022-10-17T12:24:19.562Z,37
2022-10-17T12:29:21.781Z,37
2022-10-17T12:34:23.174Z,38
2022-10-17T12:39:24.474Z,38
2022-10-17T12:44:26.220Z,38
2022-10-17T12:49:27.812Z,38
2022-10-17T12:54:33.618Z,38
2022-10-17T12:59:31.834Z,38
2022-10-17T13:04:33.760Z,38
2022-10-17T13:09:35.367Z,38
2022-10-17T13:14:37.204Z,38
2022-10-17T13:19:39.264Z,39
2022-10-17T13:24:41.039Z,39
2022-10-17T13:29:42.459Z,39
2022-10-17T13:34:44.255Z,39
2022-10-17T13:39:55.033Z,39
2022-10-17T13:44:47.973Z,39
2022-10-17T13:49:51.556Z,40
2022-10-17T13:54:51.180Z,40
2022-10-17T13:59:52.902Z,39
2022-10-17T14:09:56.848Z,40
2022-10-17T14:15:10.019Z,40
2022-10-17T14:20:16.370Z,40
2022-10-17T14:25:02.786Z,40
2022-10-17T14:30:04.020Z,40
2022-10-17T14:35:19.100Z,40
2022-10-17T14:40:08.249Z,40
2022-10-17T14:45:10.058Z,40
2022-10-17T14:50:11.144Z,41
2022-10-17T14:55:12.969Z,41
2022-10-17T15:00:14.589Z,41
2022-10-17T15:05:16.441Z,41
2022-10-17T15:10:18.551Z,41
2022-10-17T15:15:20.422Z,41
2022-10-17T15:20:22.457Z,41
2022-10-17T15:25:24.404Z,42
2022-10-17T15:30:26.531Z,42
2022-10-17T15:35:28.239Z,43
2022-10-17T15:40:29.464Z,44
2022-10-17T15:45:31.374Z,44
2022-10-17T15:50:32.756Z,45
2022-10-17T15:55:34.606Z,46
2022-10-17T16:00:36.686Z,48
2022-10-17T16:05:38.306Z,49
2022-10-17T16:10:39.997Z,48
2022-10-17T16:15:41.445Z,50
2022-10-17T16:20:42.672Z,49
2022-10-17T16:25:44.689Z,51
2022-10-17T16:30:46.254Z,52
2022-10-17T16:35:47.596Z,52
2022-10-17T16:45:51.474Z,54
2022-10-17T16:50:52.711Z,55
2022-10-17T16:55:54.496Z,57
2022-10-17T17:00:56.473Z,57
2022-10-17T17:05:58.429Z,57
2022-10-17T17:11:00.124Z,59
2022-10-17T17:16:01.793Z,59
2022-10-17T17:21:03.059Z,60
2022-10-17T17:26:05.044Z,61
2022-10-17T17:31:06.942Z,61
2022-10-17T17:36:08.864Z,63
2022-10-17T17:41:10.751Z,63
2022-10-17T17:46:12.817Z,64
2022-10-17T17:51:15.024Z,64
2022-10-17T17:56:16.346Z,65
2022-10-17T18:01:17.801Z,66
2022-10-17T18:06:19.679Z,66
2022-10-17T18:11:21.984Z,66
2022-10-17T18:16:22.923Z,67
2022-10-17T18:21:24.178Z,67
2022-10-17T18:26:26.144Z,67
2022-10-17T18:31:27.789Z,68
2022-10-17T18:36:29.505Z,69
2022-10-17T18:41:31.378Z,68
2022-10-17T18:46:33.340Z,68
2022-10-17T18:51:35.088Z,69
2022-10-17T18:56:36.656Z,69
2022-10-17T19:01:38.555Z,70
2022-10-17T19:06:46.824Z,70
2022-10-17T19:16:50.790Z,71
2022-10-17T19:21:52.749Z,70
2022-10-17T19:26:54.138Z,72
2022-10-17T19:36:56.879Z,72
2022-10-17T19:41:58.897Z,72
2022-10-17T19:46:59.734Z,72
2022-10-17T19:52:01.306Z,72
2022-10-17T19:57:03.837Z,72
2022-10-17T20:02:04.493Z,72
2022-10-17T20:07:05.743Z,73
2022-10-17T20:12:07.536Z,73
2022-10-17T20:27:12.516Z,73
2022-10-17T20:32:14.610Z,73
2022-10-17T20:37:16.442Z,73
2022-10-17T20:42:18.200Z,73
2022-10-17T20:47:32.840Z,74
2022-10-17T20:52:21.503Z,74
2022-10-17T20:57:22.698Z,74
2022-10-17T21:02:24.491Z,74
2022-10-17T21:07:26.277Z,74
2022-10-17T21:12:31.527Z,74
2022-10-17T21:17:29.668Z,74
2022-10-17T21:22:31.577Z,74
2022-10-17T21:27:32.867Z,74
2022-10-17T21:32:50.968Z,75
2022-10-17T21:37:36.301Z,75
2022-10-17T21:42:37.916Z,75
2022-10-17T21:47:41.747Z,75
2022-10-17T21:52:41.576Z,75
2022-10-17T21:57:43.409Z,76
2022-10-17T22:12:47.983Z,76
2022-10-17T22:17:50.007Z,77
2022-10-17T22:22:51.889Z,77
2022-10-17T22:27:53.853Z,77
2022-10-17T22:32:55.179Z,77
2022-10-17T22:37:56.884Z,77
2022-10-17T22:42:58.532Z,77
2022-10-17T22:48:00.338Z,77
2022-10-17T22:53:02.412Z,77
2022-10-17T22:58:04.400Z,78
2022-10-17T23:03:06.235Z,77
2022-10-17T23:08:07.721Z,77
2022-10-17T23:13:09.184Z,77
2022-10-17T23:18:10.954Z,78
2022-10-17T23:23:13.254Z,77
2022-10-17T23:28:14.860Z,77
2022-10-17T23:33:16.606Z,77
2022-10-17T23:38:17.801Z,77
2022-10-17T23:43:19.407Z,77
2022-10-17T23:48:21.434Z,77
2022-10-17T23:53:22.991Z,77
2022-10-17T23:58:24.925Z,77
